RJOO(METAR)
01/26 14:00
METAR RJOO 260500Z 09004KT 060V140 9999 FEW025 BKN/// 12/03 Q1022
RMK 1CU025 A3020=
戻る
トップページへ戻る
IMOC Co,.Ltd.